Tamanrasset, Algeria
Current Conditions -  °F | °C
As of 3:00 AM on Thursday 23 Oct 2014 (Local Time) from DAAT Reporting Station
Clear Clear  
Wind Chill: 59°   Ceiling: Unl
Heat Index: 59°   Visibility: 6mi
Dew Point: 25°   Wind: 0mph
Humidity: 27%   Direction: NA
Pressure: 30.15"   Gusts: NA
Location:  22.78°N, 5.52°E
Report Text: DAAT 230200Z 00000KT CAVOK 15/M04 Q1021
Loading
Personal Weather Stations






























Interactive Weather Map New forecast layout! Learn more

10-Day Weather Forecast

Advertisements
Track Severe Weather on mobile